Flight Track Log - Related Links

Times and Time Zones

All times are in EDT time to prevent confusion due to time zone crossing. See the GJS3707 flight status page for this flight to view local times or setup timezone preferences in your user account.

Time Position Orientation Groundspeed Altitude Reporting Facility
EDT Latitude Longitude Course Direction KTS MPH feet Rate Location/Type
Sat 08:14:28 AM 42.2017 -83.3583 285° West 158 182 1,300  Level Cleveland Center
Sat 08:15:35 AM 42.1625 -83.4181 229° Southwest 235 270 3,200 1,734 Climbing Cleveland Center
Sat 08:16:36 AM 42.1128 -83.4942 229° Southwest 271 312 5,000 1,937 Climbing Cleveland Center
Sat 08:17:42 AM 42.1375 -83.5878 290° West 251 289 7,300 2,555 Climbing Cleveland Center
Sat 08:18:00 AM 42.2965 -83.7125 283° West  Level FlightAware Approximate
Sat 08:19:00 AM 42.3145 -83.8060 285° West  Level FlightAware Approximate
Sat 08:19:11 AM 42.1867 -83.6911 303° West 250 288 11,600  Level Cleveland Center
Sat 08:20:11 AM 42.2283 -83.7744 304° West 261 300 13,700 2,750 Climbing Cleveland Center
Sat 08:21:11 AM 42.2697 -83.8608 303° West 266 306 17,100 2,700 Climbing Cleveland Center
Sat 08:22:11 AM 42.3089 -83.9469 302° West 266 306 19,100 2,100 Climbing Cleveland Center
Sat 08:23:11 AM 42.3500 -84.0364 302° West 272 313 21,300 1,950 Climbing Cleveland Center
Sat 08:24:11 AM 42.3931 -84.1258 303° West 279 321 23,000 1,250 Climbing Cleveland Center
Sat 08:25:11 AM 42.4256 -84.2233 294° West 284 327 23,800 1,400 Climbing Cleveland Center
Sat 08:26:11 AM 42.4300 -84.3417 273° West 302 348 25,800 2,000 Climbing Cleveland Center
Sat 08:27:11 AM 42.4322 -84.4631 271° West 313 360 27,800 985 Climbing Cleveland Center
Sat 08:28:25 AM 42.4383 -84.6147 273° West 317 365 28,000 89 Climbing Chicago Center
Sat 08:29:26 AM 42.4406 -84.7342 271° West 317 365 28,000  Level Chicago Center
Sat 08:30:27 AM 42.4439 -84.8550 272° West 320 368 28,000  Level Chicago Center
Sat 08:31:28 AM 42.4461 -84.9778 271° West 325 374 28,000  Level Chicago Center
Sat 08:32:29 AM 42.4494 -85.0986 272° West 323 372 28,000  Level Chicago Center
Sat 08:33:30 AM 42.4500 -85.2239 270° West 328 377 28,000  Level Chicago Center
Sat 08:34:31 AM 42.4525 -85.3528 272° West 341 392 28,000  Level Chicago Center
Sat 08:35:32 AM 42.4533 -85.4892 271° West 359 413 28,000 -738 Level Chicago Center
Sat 08:36:33 AM 42.4547 -85.6278 271° West 366 421 26,500 -1,463 Descending Chicago Center
Sat 08:37:35 AM 42.4553 -85.7753 270° West 387 445 25,000 -1,463 Descending Chicago Center
Sat 08:38:36 AM 42.4556 -85.9239 270° West 392 451 23,500 -1,475 Descending Chicago Center
Sat 08:39:37 AM 42.4497 -86.0700 267° West 389 448 22,000 -1,623 Descending Chicago Center
Sat 08:40:38 AM 42.4436 -86.2433 267° West 382 440 20,200 -1,623 Descending Chicago Center
Sat 08:41:39 AM 42.4381 -86.3825 267° West 372 428 18,700 -1,268 Descending Chicago Center
Sat 08:42:41 AM 42.4319 -86.5172 267° West 362 417 17,600 -1,268 Descending Chicago Center
Sat 08:43:42 AM 42.4275 -86.6508 267° West 355 409 16,100 -1,475 Descending Chicago Center
Sat 08:44:43 AM 42.4228 -86.7842 267° West 353 406 14,600 -1,475 Descending Chicago Center
Sat 08:45:44 AM 42.4175 -86.9125 267° West 345 397 13,100 -1,475 Descending Chicago Center
Sat 08:46:45 AM 42.4128 -87.0392 267° West 340 391 11,600 -1,268 Descending Chicago Center
Sat 08:47:47 AM 42.4058 -87.1594 266° West 326 375 10,500 -1,122 Descending Chicago Center
Sat 08:48:48 AM 42.4008 -87.2608 266° West 276 318 9,300 -738 Descending Chicago Center
Sat 08:49:49 AM 42.3772 -87.3547 251° West 269 310 9,000 -984 Descending Chicago Center
Sat 08:50:50 AM 42.3292 -87.4622 239° Southwest 278 320 7,300 -984 Descending Chicago Center
Sat 08:51:51 AM 42.2956 -87.5444 241° Southwest 279 321 7,000 -146 Descending Chicago Center
Sat 08:52:53 AM 42.2464 -87.6197 229° Southwest 274 315 7,000 -488 Level Chicago Center
Sat 08:53:54 AM 42.1892 -87.6861 221° Southwest 273 314 6,000 -1,328 Descending Chicago Center
Sat 08:54:55 AM 42.1319 -87.7486 219° Southwest 266 306 4,300 -1,672 Descending Chicago Center

Login

Don't have an account? Register now (free) for customized features, flight alerts, and more!